This is the latest recevied weather packets stored in our database for station/object OK0EK-11. If no packets are shown the sender has not sent any weather packets the latest 10 day(s).
| Time | Temp. | Humidity | Pressure | Rain* | Wind** | Luminosity | Snow |
|---|---|---|---|---|---|---|---|
| 1787498686 | 18.89° C | 44% | 1022.7 hPa | - | - | - | - |
| 1787498086 | 19.44° C | 44% | 1022.6 hPa | - | - | - | - |
| 1787497486 | 18.33° C | 45% | 1022.7 hPa | - | - | - | - |
| 1787496886 | 18.89° C | 44% | 1022.7 hPa | - | - | - | - |
| 1787496286 | 19.44° C | 43% | 1022.6 hPa | - | - | - | - |
| 1787495686 | 19.44° C | 45% | 1022.6 hPa | - | - | - | - |
| 1787495086 | 19.44° C | 43% | 1022.7 hPa | - | - | - | - |
| 1787494486 | 18.89° C | 46% | 1022.8 hPa | - | - | - | - |
| 1787493887 | 19.44° C | 43% | 1022.9 hPa | - | - | - | - |
| 1787493287 | 19.44° C | 46% | 1022.8 hPa | - | - | - | - |
| 1787492687 | 18.33° C | 48% | 1023 hPa | - | - | - | - |
| 1787492088 | 16.11° C | 54% | 1023 hPa | - | - | - | - |
| 1787491488 | 18.89° C | 49% | 1022.9 hPa | - | - | - | - |
| 1787490888 | 18.33° C | 49% | 1022.9 hPa | - | - | - | - |
| 1787490288 | 18.89° C | 48% | 1022.9 hPa | - | - | - | - |
| 1787489688 | 19.44° C | 47% | 1023.1 hPa | - | - | - | - |
| 1787489087 | 17.78° C | 52% | 1022.9 hPa | - | - | - | - |
| 1787488487 | 15.56° C | 57% | 1022.9 hPa | - | - | - | - |
| 1787487887 | 16.11° C | 55% | 1023 hPa | - | - | - | - |
| 1787487288 | 15° C | 58% | 1022.9 hPa | - | - | - | - |
| 1787486688 | 15° C | 56% | 1023 hPa | - | - | - | - |
| 1787486088 | 17.78° C | 49% | 1023.2 hPa | - | - | - | - |
| 1787485488 | 16.11° C | 53% | 1023.1 hPa | - | - | - | - |
| 1787484888 | 18.89° C | 48% | 1023.2 hPa | - | - | - | - |
| 1787484288 | 16.11° C | 53% | 1023.2 hPa | - | - | - | - |
* Rain since midnight (hover to see other rain measurements)
** Current wind speed in m/s (hover to see current wind gust speed)